Samuels, Idaho
Current Conditions -  °F | °C
As of 9:55 AM on Monday 22 Dec 2014 (Local Time) from KSZT Reporting Station
Scattered Clouds Scattered Clouds  
Wind Chill: 34°   Ceiling: Unl
Heat Index: 39°   Visibility: 10mi
Dew Point: 32°   Wind: 8mph
Humidity: 75%   Direction: 180°S
Pressure: 30.1"   Gusts: NA
Location:  48.48°N, 116.46°W
Report Text: KSZT 221755Z AUTO 18007KT 10SM SCT043 SCT055 04/00 A3010 RMK AO2
Loading
Personal Weather Stations






























Interactive Weather Map New forecast layout! Learn more

10-Day Weather Forecast

Advertisements
Track Severe Weather on mobile